sensor_id;sensor_type;location;lat;lon;timestamp;temperature;humidity
8537;DHT22;4306;50.210;10.628;2023-06-22T00:00:04;19.10;99.90
8537;DHT22;4306;50.210;10.628;2023-06-22T00:02:36;19.00;99.90
8537;DHT22;4306;50.210;10.628;2023-06-22T00:05:03;18.90;99.90
8537;DHT22;4306;50.210;10.628;2023-06-22T00:07:30;18.80;99.90
8537;DHT22;4306;50.210;10.628;2023-06-22T00:09:57;18.80;99.90
8537;DHT22;4306;50.210;10.628;2023-06-22T00:12:24;18.80;99.90
8537;DHT22;4306;50.210;10.628;2023-06-22T00:14:52;18.80;99.90
8537;DHT22;4306;50.210;10.628;2023-06-22T00:17:19;18.90;99.90
8537;DHT22;4306;50.210;10.628;2023-06-22T00:19:47;18.90;99.90
8537;DHT22;4306;50.210;10.628;2023-06-22T00:22:18;19.00;99.90
8537;DHT22;4306;50.210;10.628;2023-06-22T00:24:54;19.00;99.90
8537;DHT22;4306;50.210;10.628;2023-06-22T00:27:21;19.00;99.90
8537;DHT22;4306;50.210;10.628;2023-06-22T00:29:47;19.00;99.90
8537;DHT22;4306;50.210;10.628;2023-06-22T00:32:16;19.00;99.90
8537;DHT22;4306;50.210;10.628;2023-06-22T00:34:44;19.00;99.90
8537;DHT22;4306;50.210;10.628;2023-06-22T00:37:11;19.00;99.90
8537;DHT22;4306;50.210;10.628;2023-06-22T00:39:38;19.00;99.90
8537;DHT22;4306;50.210;10.628;2023-06-22T00:42:05;19.00;99.90
8537;DHT22;4306;50.210;10.628;2023-06-22T00:44:32;19.00;99.90
8537;DHT22;4306;50.210;10.628;2023-06-22T00:46:59;19.00;99.90
8537;DHT22;4306;50.210;10.628;2023-06-22T00:49:28;19.00;99.90
8537;DHT22;4306;50.210;10.628;2023-06-22T00:51:56;19.00;99.90
8537;DHT22;4306;50.210;10.628;2023-06-22T00:54:24;18.90;99.90
8537;DHT22;4306;50.210;10.628;2023-06-22T00:56:51;18.80;99.90
8537;DHT22;4306;50.210;10.628;2023-06-22T00:59:20;18.80;99.90
8537;DHT22;4306;50.210;10.628;2023-06-22T01:01:47;18.80;99.90
8537;DHT22;4306;50.210;10.628;2023-06-22T01:04:14;18.80;99.90
8537;DHT22;4306;50.210;10.628;2023-06-22T01:06:47;18.80;99.90
8537;DHT22;4306;50.210;10.628;2023-06-22T01:09:25;18.80;99.90
8537;DHT22;4306;50.210;10.628;2023-06-22T01:11:57;18.80;99.90
8537;DHT22;4306;50.210;10.628;2023-06-22T01:14:30;18.50;99.90
8537;DHT22;4306;50.210;10.628;2023-06-22T01:17:00;18.40;99.90
8537;DHT22;4306;50.210;10.628;2023-06-22T01:19:37;18.40;99.90
8537;DHT22;4306;50.210;10.628;2023-06-22T01:22:09;18.60;99.90
8537;DHT22;4306;50.210;10.628;2023-06-22T01:24:45;18.60;99.90
8537;DHT22;4306;50.210;10.628;2023-06-22T01:27:24;18.50;99.90
8537;DHT22;4306;50.210;10.628;2023-06-22T01:29:57;18.40;99.90
8537;DHT22;4306;50.210;10.628;2023-06-22T01:32:28;18.50;99.90
8537;DHT22;4306;50.210;10.628;2023-06-22T01:34:58;18.50;99.90
8537;DHT22;4306;50.210;10.628;2023-06-22T01:37:25;18.40;99.90
8537;DHT22;4306;50.210;10.628;2023-06-22T01:39:52;18.30;99.90
8537;DHT22;4306;50.210;10.628;2023-06-22T01:42:20;18.30;99.90
8537;DHT22;4306;50.210;10.628;2023-06-22T01:44:47;18.30;99.90
8537;DHT22;4306;50.210;10.628;2023-06-22T01:47:16;18.40;99.90
8537;DHT22;4306;50.210;10.628;2023-06-22T01:49:43;18.40;99.90
8537;DHT22;4306;50.210;10.628;2023-06-22T01:52:11;18.40;99.90
8537;DHT22;4306;50.210;10.628;2023-06-22T01:54:39;18.50;99.90
8537;DHT22;4306;50.210;10.628;2023-06-22T01:57:06;18.30;99.90
8537;DHT22;4306;50.210;10.628;2023-06-22T01:59:37;18.40;99.90
8537;DHT22;4306;50.210;10.628;2023-06-22T02:02:08;18.40;99.90
8537;DHT22;4306;50.210;10.628;2023-06-22T02:04:43;18.40;99.90
8537;DHT22;4306;50.210;10.628;2023-06-22T02:07:13;18.50;99.90
8537;DHT22;4306;50.210;10.628;2023-06-22T02:09:44;18.50;99.90
8537;DHT22;4306;50.210;10.628;2023-06-22T02:12:13;18.50;99.90
8537;DHT22;4306;50.210;10.628;2023-06-22T02:14:40;18.50;99.90
8537;DHT22;4306;50.210;10.628;2023-06-22T02:17:09;18.50;99.90
8537;DHT22;4306;50.210;10.628;2023-06-22T02:19:38;18.50;99.90
8537;DHT22;4306;50.210;10.628;2023-06-22T02:22:05;18.50;99.90
8537;DHT22;4306;50.210;10.628;2023-06-22T02:24:32;18.60;99.90
8537;DHT22;4306;50.210;10.628;2023-06-22T02:27:00;18.60;99.90
8537;DHT22;4306;50.210;10.628;2023-06-22T02:29:27;18.50;99.90
8537;DHT22;4306;50.210;10.628;2023-06-22T02:31:54;18.50;99.90
8537;DHT22;4306;50.210;10.628;2023-06-22T02:34:21;18.60;99.90
8537;DHT22;4306;50.210;10.628;2023-06-22T02:36:51;18.60;99.90
8537;DHT22;4306;50.210;10.628;2023-06-22T02:39:19;18.60;99.90
8537;DHT22;4306;50.210;10.628;2023-06-22T02:41:47;18.60;99.90
8537;DHT22;4306;50.210;10.628;2023-06-22T02:44:14;18.70;99.90
8537;DHT22;4306;50.210;10.628;2023-06-22T02:46:42;18.70;99.90
8537;DHT22;4306;50.210;10.628;2023-06-22T02:49:09;18.70;99.90
8537;DHT22;4306;50.210;10.628;2023-06-22T02:51:41;18.70;99.90
8537;DHT22;4306;50.210;10.628;2023-06-22T02:54:10;18.80;99.90
8537;DHT22;4306;50.210;10.628;2023-06-22T02:56:37;18.70;99.90
8537;DHT22;4306;50.210;10.628;2023-06-22T02:59:06;18.80;99.90
8537;DHT22;4306;50.210;10.628;2023-06-22T03:01:33;18.80;99.90
8537;DHT22;4306;50.210;10.628;2023-06-22T03:04:03;18.80;99.90
8537;DHT22;4306;50.210;10.628;2023-06-22T03:06:30;18.80;99.90
8537;DHT22;4306;50.210;10.628;2023-06-22T03:08:59;18.80;99.90
8537;DHT22;4306;50.210;10.628;2023-06-22T03:11:28;18.60;99.90
8537;DHT22;4306;50.210;10.628;2023-06-22T03:13:55;18.60;99.90
8537;DHT22;4306;50.210;10.628;2023-06-22T03:16:22;18.50;99.90
8537;DHT22;4306;50.210;10.628;2023-06-22T03:18:49;18.40;99.90
8537;DHT22;4306;50.210;10.628;2023-06-22T03:21:16;18.50;99.90
8537;DHT22;4306;50.210;10.628;2023-06-22T03:23:42;18.50;99.90
8537;DHT22;4306;50.210;10.628;2023-06-22T03:26:09;18.60;99.90
8537;DHT22;4306;50.210;10.628;2023-06-22T03:28:38;18.70;99.90
8537;DHT22;4306;50.210;10.628;2023-06-22T03:31:05;18.70;99.90
8537;DHT22;4306;50.210;10.628;2023-06-22T03:33:33;18.80;99.90
8537;DHT22;4306;50.210;10.628;2023-06-22T03:35:59;18.70;99.90
8537;DHT22;4306;50.210;10.628;2023-06-22T03:38:26;18.60;99.90
8537;DHT22;4306;50.210;10.628;2023-06-22T03:40:53;18.70;99.90
8537;DHT22;4306;50.210;10.628;2023-06-22T03:43:20;18.60;99.90
8537;DHT22;4306;50.210;10.628;2023-06-22T03:45:48;18.60;99.90
8537;DHT22;4306;50.210;10.628;2023-06-22T03:48:15;18.70;99.90
8537;DHT22;4306;50.210;10.628;2023-06-22T03:50:42;18.80;99.90
8537;DHT22;4306;50.210;10.628;2023-06-22T03:53:10;18.80;99.90
8537;DHT22;4306;50.210;10.628;2023-06-22T03:55:40;18.80;99.90
8537;DHT22;4306;50.210;10.628;2023-06-22T03:58:07;18.80;99.90
8537;DHT22;4306;50.210;10.628;2023-06-22T04:00:35;18.90;99.90
8537;DHT22;4306;50.210;10.628;2023-06-22T04:03:03;18.90;99.90
8537;DHT22;4306;50.210;10.628;2023-06-22T04:05:30;18.80;99.90
8537;DHT22;4306;50.210;10.628;2023-06-22T04:07:56;18.70;99.90
8537;DHT22;4306;50.210;10.628;2023-06-22T04:10:23;18.70;99.90
8537;DHT22;4306;50.210;10.628;2023-06-22T04:12:50;18.80;99.90
8537;DHT22;4306;50.210;10.628;2023-06-22T04:15:17;18.90;99.90
8537;DHT22;4306;50.210;10.628;2023-06-22T04:17:44;18.90;99.90
8537;DHT22;4306;50.210;10.628;2023-06-22T04:20:12;18.80;99.90
8537;DHT22;4306;50.210;10.628;2023-06-22T04:22:39;18.90;99.90
8537;DHT22;4306;50.210;10.628;2023-06-22T04:25:06;19.00;99.90
8537;DHT22;4306;50.210;10.628;2023-06-22T04:27:34;19.10;99.90
8537;DHT22;4306;50.210;10.628;2023-06-22T04:30:03;19.20;99.90
8537;DHT22;4306;50.210;10.628;2023-06-22T04:32:30;19.30;99.90
8537;DHT22;4306;50.210;10.628;2023-06-22T04:34:57;19.40;99.90
8537;DHT22;4306;50.210;10.628;2023-06-22T04:37:27;19.50;99.90
8537;DHT22;4306;50.210;10.628;2023-06-22T04:39:54;19.60;99.90
8537;DHT22;4306;50.210;10.628;2023-06-22T04:42:20;19.60;99.90
8537;DHT22;4306;50.210;10.628;2023-06-22T04:44:47;19.70;99.90
8537;DHT22;4306;50.210;10.628;2023-06-22T04:47:14;19.80;99.90
8537;DHT22;4306;50.210;10.628;2023-06-22T04:49:41;19.80;99.90
8537;DHT22;4306;50.210;10.628;2023-06-22T04:52:10;19.80;99.90
8537;DHT22;4306;50.210;10.628;2023-06-22T04:54:40;19.90;99.90
8537;DHT22;4306;50.210;10.628;2023-06-22T04:57:14;20.00;99.90
8537;DHT22;4306;50.210;10.628;2023-06-22T04:59:41;20.10;99.90
8537;DHT22;4306;50.210;10.628;2023-06-22T05:02:08;20.10;99.90
8537;DHT22;4306;50.210;10.628;2023-06-22T05:04:35;20.30;99.90
8537;DHT22;4306;50.210;10.628;2023-06-22T05:07:04;20.30;99.90
8537;DHT22;4306;50.210;10.628;2023-06-22T05:09:31;20.40;99.90
8537;DHT22;4306;50.210;10.628;2023-06-22T05:12:01;20.50;99.90
8537;DHT22;4306;50.210;10.628;2023-06-22T05:14:28;20.60;99.90
8537;DHT22;4306;50.210;10.628;2023-06-22T05:16:55;20.70;99.90
8537;DHT22;4306;50.210;10.628;2023-06-22T05:19:24;20.70;99.90
8537;DHT22;4306;50.210;10.628;2023-06-22T05:21:51;20.80;99.90
8537;DHT22;4306;50.210;10.628;2023-06-22T05:24:18;20.90;99.90
8537;DHT22;4306;50.210;10.628;2023-06-22T05:26:44;20.90;99.90
8537;DHT22;4306;50.210;10.628;2023-06-22T05:29:13;21.00;99.90
8537;DHT22;4306;50.210;10.628;2023-06-22T05:31:39;21.10;99.90
8537;DHT22;4306;50.210;10.628;2023-06-22T05:34:07;21.10;99.90
8537;DHT22;4306;50.210;10.628;2023-06-22T05:36:34;21.10;99.90
8537;DHT22;4306;50.210;10.628;2023-06-22T05:39:11;21.20;99.90
8537;DHT22;4306;50.210;10.628;2023-06-22T05:41:38;21.20;99.90
8537;DHT22;4306;50.210;10.628;2023-06-22T05:44:04;21.20;99.90
8537;DHT22;4306;50.210;10.628;2023-06-22T05:46:33;21.40;99.90
8537;DHT22;4306;50.210;10.628;2023-06-22T05:49:00;21.40;99.90
8537;DHT22;4306;50.210;10.628;2023-06-22T05:51:26;21.50;99.90
8537;DHT22;4306;50.210;10.628;2023-06-22T05:53:53;21.60;99.90
8537;DHT22;4306;50.210;10.628;2023-06-22T05:56:20;21.60;99.90
8537;DHT22;4306;50.210;10.628;2023-06-22T05:58:47;21.70;99.90
8537;DHT22;4306;50.210;10.628;2023-06-22T06:01:14;21.80;99.90
8537;DHT22;4306;50.210;10.628;2023-06-22T06:03:42;21.80;99.90
8537;DHT22;4306;50.210;10.628;2023-06-22T06:06:09;21.80;99.90
8537;DHT22;4306;50.210;10.628;2023-06-22T06:08:37;21.90;99.90
8537;DHT22;4306;50.210;10.628;2023-06-22T06:11:03;22.30;99.90
8537;DHT22;4306;50.210;10.628;2023-06-22T06:13:30;22.80;99.90
8537;DHT22;4306;50.210;10.628;2023-06-22T06:15:57;23.10;99.90
8537;DHT22;4306;50.210;10.628;2023-06-22T06:18:25;23.50;99.90
8537;DHT22;4306;50.210;10.628;2023-06-22T06:20:53;24.10;99.90
8537;DHT22;4306;50.210;10.628;2023-06-22T06:23:20;24.90;99.90
8537;DHT22;4306;50.210;10.628;2023-06-22T06:25:46;25.40;99.90
8537;DHT22;4306;50.210;10.628;2023-06-22T06:28:13;26.00;99.90
8537;DHT22;4306;50.210;10.628;2023-06-22T06:30:40;26.30;99.90
8537;DHT22;4306;50.210;10.628;2023-06-22T06:33:07;26.10;99.90
8537;DHT22;4306;50.210;10.628;2023-06-22T06:35:35;26.10;99.90
8537;DHT22;4306;50.210;10.628;2023-06-22T06:38:04;25.70;99.90
8537;DHT22;4306;50.210;10.628;2023-06-22T06:40:31;25.50;99.90
8537;DHT22;4306;50.210;10.628;2023-06-22T06:42:58;25.50;99.90
8537;DHT22;4306;50.210;10.628;2023-06-22T06:45:25;25.40;99.90
8537;DHT22;4306;50.210;10.628;2023-06-22T06:47:54;25.20;99.90
8537;DHT22;4306;50.210;10.628;2023-06-22T06:50:21;25.10;99.90
8537;DHT22;4306;50.210;10.628;2023-06-22T06:52:48;24.90;99.90
8537;DHT22;4306;50.210;10.628;2023-06-22T06:55:17;24.90;99.90
8537;DHT22;4306;50.210;10.628;2023-06-22T06:57:45;24.90;99.90
8537;DHT22;4306;50.210;10.628;2023-06-22T07:00:15;24.80;99.90
8537;DHT22;4306;50.210;10.628;2023-06-22T07:02:43;24.70;99.90
8537;DHT22;4306;50.210;10.628;2023-06-22T07:05:10;24.50;99.90
8537;DHT22;4306;50.210;10.628;2023-06-22T07:07:37;24.50;99.90
8537;DHT22;4306;50.210;10.628;2023-06-22T07:10:05;24.40;99.90
8537;DHT22;4306;50.210;10.628;2023-06-22T07:12:33;24.50;99.90
8537;DHT22;4306;50.210;10.628;2023-06-22T07:15:04;24.50;99.90
8537;DHT22;4306;50.210;10.628;2023-06-22T07:17:33;24.30;99.90
8537;DHT22;4306;50.210;10.628;2023-06-22T07:20:00;24.30;99.90
8537;DHT22;4306;50.210;10.628;2023-06-22T07:22:29;24.30;99.90
8537;DHT22;4306;50.210;10.628;2023-06-22T07:24:56;24.40;99.90
8537;DHT22;4306;50.210;10.628;2023-06-22T07:27:23;24.40;99.90
8537;DHT22;4306;50.210;10.628;2023-06-22T07:29:51;24.30;99.90
8537;DHT22;4306;50.210;10.628;2023-06-22T07:32:18;24.30;99.90
8537;DHT22;4306;50.210;10.628;2023-06-22T07:34:45;24.40;99.90
8537;DHT22;4306;50.210;10.628;2023-06-22T07:37:12;24.40;99.90
8537;DHT22;4306;50.210;10.628;2023-06-22T07:39:39;24.50;99.90
8537;DHT22;4306;50.210;10.628;2023-06-22T07:42:06;24.60;99.90
8537;DHT22;4306;50.210;10.628;2023-06-22T07:44:32;24.70;99.90
8537;DHT22;4306;50.210;10.628;2023-06-22T07:47:01;24.70;99.90
8537;DHT22;4306;50.210;10.628;2023-06-22T07:49:28;24.70;99.90
8537;DHT22;4306;50.210;10.628;2023-06-22T07:51:55;24.60;99.90
8537;DHT22;4306;50.210;10.628;2023-06-22T07:54:22;24.70;99.90
8537;DHT22;4306;50.210;10.628;2023-06-22T07:56:48;24.80;99.90
8537;DHT22;4306;50.210;10.628;2023-06-22T07:59:15;24.90;99.90
8537;DHT22;4306;50.210;10.628;2023-06-22T08:01:42;25.00;99.90
8537;DHT22;4306;50.210;10.628;2023-06-22T08:04:10;25.10;99.90
8537;DHT22;4306;50.210;10.628;2023-06-22T08:06:37;25.10;99.90
8537;DHT22;4306;50.210;10.628;2023-06-22T08:09:04;25.20;99.90
8537;DHT22;4306;50.210;10.628;2023-06-22T08:11:31;25.30;99.90
8537;DHT22;4306;50.210;10.628;2023-06-22T08:13:58;25.30;99.90
8537;DHT22;4306;50.210;10.628;2023-06-22T08:16:25;25.40;99.90
8537;DHT22;4306;50.210;10.628;2023-06-22T08:18:51;25.40;99.90
8537;DHT22;4306;50.210;10.628;2023-06-22T08:21:20;25.50;99.90
8537;DHT22;4306;50.210;10.628;2023-06-22T08:23:47;25.60;99.90
8537;DHT22;4306;50.210;10.628;2023-06-22T08:26:14;25.60;99.90
8537;DHT22;4306;50.210;10.628;2023-06-22T08:28:41;25.70;99.90
8537;DHT22;4306;50.210;10.628;2023-06-22T08:31:08;25.70;99.90
8537;DHT22;4306;50.210;10.628;2023-06-22T08:33:35;25.80;99.90
8537;DHT22;4306;50.210;10.628;2023-06-22T08:36:02;25.80;99.90
8537;DHT22;4306;50.210;10.628;2023-06-22T08:38:33;25.90;99.90
8537;DHT22;4306;50.210;10.628;2023-06-22T08:40:59;25.90;99.90
8537;DHT22;4306;50.210;10.628;2023-06-22T08:43:26;26.10;99.90
8537;DHT22;4306;50.210;10.628;2023-06-22T08:45:53;26.20;99.90
8537;DHT22;4306;50.210;10.628;2023-06-22T08:48:20;26.10;99.90
8537;DHT22;4306;50.210;10.628;2023-06-22T08:50:47;26.30;99.90
8537;DHT22;4306;50.210;10.628;2023-06-22T08:53:14;26.30;99.90
8537;DHT22;4306;50.210;10.628;2023-06-22T08:55:42;26.30;99.90
8537;DHT22;4306;50.210;10.628;2023-06-22T08:58:09;26.40;99.90
8537;DHT22;4306;50.210;10.628;2023-06-22T09:00:36;26.50;99.90
8537;DHT22;4306;50.210;10.628;2023-06-22T09:03:03;26.50;99.90
8537;DHT22;4306;50.210;10.628;2023-06-22T09:05:30;26.60;99.90
8537;DHT22;4306;50.210;10.628;2023-06-22T09:07:57;26.60;99.90
8537;DHT22;4306;50.210;10.628;2023-06-22T09:10:25;26.50;99.90
8537;DHT22;4306;50.210;10.628;2023-06-22T09:12:53;26.60;99.90
8537;DHT22;4306;50.210;10.628;2023-06-22T09:15:20;26.60;99.90
8537;DHT22;4306;50.210;10.628;2023-06-22T09:17:47;26.60;99.90
8537;DHT22;4306;50.210;10.628;2023-06-22T09:20:14;26.80;99.90
8537;DHT22;4306;50.210;10.628;2023-06-22T09:22:41;26.70;99.90
8537;DHT22;4306;50.210;10.628;2023-06-22T09:25:08;26.90;99.90
8537;DHT22;4306;50.210;10.628;2023-06-22T09:27:35;27.00;99.90
8537;DHT22;4306;50.210;10.628;2023-06-22T09:30:05;27.00;99.90
8537;DHT22;4306;50.210;10.628;2023-06-22T09:32:32;27.10;99.90
8537;DHT22;4306;50.210;10.628;2023-06-22T09:35:02;27.20;99.90
8537;DHT22;4306;50.210;10.628;2023-06-22T09:37:28;27.30;99.90
8537;DHT22;4306;50.210;10.628;2023-06-22T09:39:55;27.30;99.90
8537;DHT22;4306;50.210;10.628;2023-06-22T09:42:22;27.40;99.90
8537;DHT22;4306;50.210;10.628;2023-06-22T09:44:49;27.50;99.90
8537;DHT22;4306;50.210;10.628;2023-06-22T09:47:17;27.60;99.90
8537;DHT22;4306;50.210;10.628;2023-06-22T09:49:44;27.60;99.90
8537;DHT22;4306;50.210;10.628;2023-06-22T09:52:11;27.70;99.90
8537;DHT22;4306;50.210;10.628;2023-06-22T09:54:38;27.80;99.90
8537;DHT22;4306;50.210;10.628;2023-06-22T09:57:05;27.90;99.90
8537;DHT22;4306;50.210;10.628;2023-06-22T09:59:32;28.00;99.90
8537;DHT22;4306;50.210;10.628;2023-06-22T10:01:58;28.00;99.90
8537;DHT22;4306;50.210;10.628;2023-06-22T10:04:27;28.00;99.60
8537;DHT22;4306;50.210;10.628;2023-06-22T10:06:54;28.00;99.90
8537;DHT22;4306;50.210;10.628;2023-06-22T10:09:21;28.10;99.90
8537;DHT22;4306;50.210;10.628;2023-06-22T10:11:48;28.10;99.40
8537;DHT22;4306;50.210;10.628;2023-06-22T10:14:14;28.20;98.40
8537;DHT22;4306;50.210;10.628;2023-06-22T10:16:42;28.20;99.60
8537;DHT22;4306;50.210;10.628;2023-06-22T10:19:08;28.30;99.20
8537;DHT22;4306;50.210;10.628;2023-06-22T10:21:37;28.40;99.90
8537;DHT22;4306;50.210;10.628;2023-06-22T10:24:04;28.60;99.90
8537;DHT22;4306;50.210;10.628;2023-06-22T10:26:32;28.60;98.30
8537;DHT22;4306;50.210;10.628;2023-06-22T10:28:59;28.50;97.60
8537;DHT22;4306;50.210;10.628;2023-06-22T10:31:26;28.60;97.70
8537;DHT22;4306;50.210;10.628;2023-06-22T10:33:54;28.70;97.90
8537;DHT22;4306;50.210;10.628;2023-06-22T10:36:21;28.80;97.60
8537;DHT22;4306;50.210;10.628;2023-06-22T10:38:49;28.90;98.10
8537;DHT22;4306;50.210;10.628;2023-06-22T10:41:16;28.90;97.70
8537;DHT22;4306;50.210;10.628;2023-06-22T10:43:43;29.00;98.70
8537;DHT22;4306;50.210;10.628;2023-06-22T10:46:10;29.20;98.50
8537;DHT22;4306;50.210;10.628;2023-06-22T10:48:37;29.30;98.10
8537;DHT22;4306;50.210;10.628;2023-06-22T10:51:03;29.10;97.30
8537;DHT22;4306;50.210;10.628;2023-06-22T10:53:31;29.20;95.90
8537;DHT22;4306;50.210;10.628;2023-06-22T10:55:59;29.30;97.40
8537;DHT22;4306;50.210;10.628;2023-06-22T10:58:26;29.20;96.70
8537;DHT22;4306;50.210;10.628;2023-06-22T11:00:53;29.30;97.40
8537;DHT22;4306;50.210;10.628;2023-06-22T11:03:20;29.30;95.90
8537;DHT22;4306;50.210;10.628;2023-06-22T11:05:47;29.20;95.50
8537;DHT22;4306;50.210;10.628;2023-06-22T11:08:14;29.20;95.90
8537;DHT22;4306;50.210;10.628;2023-06-22T11:10:41;29.20;97.10
8537;DHT22;4306;50.210;10.628;2023-06-22T11:13:09;29.40;96.20
8537;DHT22;4306;50.210;10.628;2023-06-22T11:15:36;29.50;96.40
8537;DHT22;4306;50.210;10.628;2023-06-22T11:18:03;29.70;95.70
8537;DHT22;4306;50.210;10.628;2023-06-22T11:20:33;29.80;95.90
8537;DHT22;4306;50.210;10.628;2023-06-22T11:23:04;29.80;95.00
8537;DHT22;4306;50.210;10.628;2023-06-22T11:25:30;29.90;94.80
8537;DHT22;4306;50.210;10.628;2023-06-22T11:27:57;29.90;94.50
8537;DHT22;4306;50.210;10.628;2023-06-22T11:30:25;29.90;93.80
8537;DHT22;4306;50.210;10.628;2023-06-22T11:32:52;30.00;94.40
8537;DHT22;4306;50.210;10.628;2023-06-22T11:35:19;30.00;93.70
8537;DHT22;4306;50.210;10.628;2023-06-22T11:37:46;30.10;94.70
8537;DHT22;4306;50.210;10.628;2023-06-22T11:40:13;30.10;93.30
8537;DHT22;4306;50.210;10.628;2023-06-22T11:42:40;30.10;93.80
8537;DHT22;4306;50.210;10.628;2023-06-22T11:45:07;30.20;94.60
8537;DHT22;4306;50.210;10.628;2023-06-22T11:47:36;30.30;93.90
8537;DHT22;4306;50.210;10.628;2023-06-22T11:50:03;30.50;92.20
8537;DHT22;4306;50.210;10.628;2023-06-22T11:52:30;30.60;91.40
8537;DHT22;4306;50.210;10.628;2023-06-22T11:54:57;30.70;93.40
8537;DHT22;4306;50.210;10.628;2023-06-22T11:57:25;30.80;91.60
8537;DHT22;4306;50.210;10.628;2023-06-22T11:59:51;30.80;92.60
8537;DHT22;4306;50.210;10.628;2023-06-22T12:02:18;30.90;92.60
8537;DHT22;4306;50.210;10.628;2023-06-22T12:04:46;31.00;90.70
8537;DHT22;4306;50.210;10.628;2023-06-22T12:07:13;31.00;91.90
8537;DHT22;4306;50.210;10.628;2023-06-22T12:09:41;31.10;90.60
8537;DHT22;4306;50.210;10.628;2023-06-22T12:12:08;31.10;90.60
8537;DHT22;4306;50.210;10.628;2023-06-22T12:14:35;31.30;90.40
8537;DHT22;4306;50.210;10.628;2023-06-22T12:17:02;31.40;90.90
8537;DHT22;4306;50.210;10.628;2023-06-22T12:19:29;31.60;89.80
8537;DHT22;4306;50.210;10.628;2023-06-22T12:21:57;31.50;88.60
8537;DHT22;4306;50.210;10.628;2023-06-22T12:24:24;31.30;88.50
8537;DHT22;4306;50.210;10.628;2023-06-22T12:26:51;31.40;90.40
8537;DHT22;4306;50.210;10.628;2023-06-22T12:29:18;31.60;89.90
8537;DHT22;4306;50.210;10.628;2023-06-22T12:31:45;31.60;89.10
8537;DHT22;4306;50.210;10.628;2023-06-22T12:34:12;31.80;88.50
8537;DHT22;4306;50.210;10.628;2023-06-22T12:36:38;31.80;89.00
8537;DHT22;4306;50.210;10.628;2023-06-22T12:39:07;31.90;87.40
8537;DHT22;4306;50.210;10.628;2023-06-22T12:41:34;32.10;84.80
8537;DHT22;4306;50.210;10.628;2023-06-22T12:44:00;32.10;84.10
8537;DHT22;4306;50.210;10.628;2023-06-22T12:46:27;32.10;86.10
8537;DHT22;4306;50.210;10.628;2023-06-22T12:48:55;32.30;86.10
8537;DHT22;4306;50.210;10.628;2023-06-22T12:51:22;32.30;85.90
8537;DHT22;4306;50.210;10.628;2023-06-22T12:53:49;32.50;86.80
8537;DHT22;4306;50.210;10.628;2023-06-22T12:56:17;32.50;85.20
8537;DHT22;4306;50.210;10.628;2023-06-22T12:58:44;32.60;83.70
8537;DHT22;4306;50.210;10.628;2023-06-22T13:01:11;32.70;82.30
8537;DHT22;4306;50.210;10.628;2023-06-22T13:03:38;32.70;80.30
8537;DHT22;4306;50.210;10.628;2023-06-22T13:06:05;32.80;81.10
8537;DHT22;4306;50.210;10.628;2023-06-22T13:08:32;33.00;81.50
8537;DHT22;4306;50.210;10.628;2023-06-22T13:10:59;33.10;80.40
8537;DHT22;4306;50.210;10.628;2023-06-22T13:13:27;33.10;80.30
8537;DHT22;4306;50.210;10.628;2023-06-22T13:15:54;33.20;77.90
8537;DHT22;4306;50.210;10.628;2023-06-22T13:18:20;33.10;78.60
8537;DHT22;4306;50.210;10.628;2023-06-22T13:20:47;33.00;77.80
8537;DHT22;4306;50.210;10.628;2023-06-22T13:23:14;32.90;76.10
8537;DHT22;4306;50.210;10.628;2023-06-22T13:25:41;32.80;74.10
8537;DHT22;4306;50.210;10.628;2023-06-22T13:28:08;32.80;75.20
8537;DHT22;4306;50.210;10.628;2023-06-22T13:30:37;32.90;76.60
8537;DHT22;4306;50.210;10.628;2023-06-22T13:33:04;33.00;76.80
8537;DHT22;4306;50.210;10.628;2023-06-22T13:35:31;32.90;73.80
8537;DHT22;4306;50.210;10.628;2023-06-22T13:37:58;32.70;73.30
8537;DHT22;4306;50.210;10.628;2023-06-22T13:40:25;32.80;76.70
8537;DHT22;4306;50.210;10.628;2023-06-22T13:42:51;33.00;77.80
8537;DHT22;4306;50.210;10.628;2023-06-22T13:45:18;33.00;76.80
8537;DHT22;4306;50.210;10.628;2023-06-22T13:47:47;33.10;78.20
8537;DHT22;4306;50.210;10.628;2023-06-22T13:50:14;33.10;76.90
8537;DHT22;4306;50.210;10.628;2023-06-22T13:52:41;33.10;75.30
8537;DHT22;4306;50.210;10.628;2023-06-22T13:55:08;33.20;75.80
8537;DHT22;4306;50.210;10.628;2023-06-22T13:57:36;33.10;73.30
8537;DHT22;4306;50.210;10.628;2023-06-22T14:00:04;33.10;73.90
8537;DHT22;4306;50.210;10.628;2023-06-22T14:02:31;33.20;76.40
8537;DHT22;4306;50.210;10.628;2023-06-22T14:05:00;33.00;70.90
8537;DHT22;4306;50.210;10.628;2023-06-22T14:07:28;33.00;71.10
8537;DHT22;4306;50.210;10.628;2023-06-22T14:09:54;32.90;70.80
8537;DHT22;4306;50.210;10.628;2023-06-22T14:12:21;33.00;72.30
8537;DHT22;4306;50.210;10.628;2023-06-22T14:14:48;33.10;73.70
8537;DHT22;4306;50.210;10.628;2023-06-22T14:17:15;33.20;68.90
8537;DHT22;4306;50.210;10.628;2023-06-22T14:19:42;33.10;72.40
8537;DHT22;4306;50.210;10.628;2023-06-22T14:22:10;32.90;69.30
8537;DHT22;4306;50.210;10.628;2023-06-22T14:24:37;32.90;69.70
8537;DHT22;4306;50.210;10.628;2023-06-22T14:27:04;32.80;71.30
8537;DHT22;4306;50.210;10.628;2023-06-22T14:29:34;32.80;71.30
8537;DHT22;4306;50.210;10.628;2023-06-22T14:32:00;32.60;68.70
8537;DHT22;4306;50.210;10.628;2023-06-22T14:34:27;32.50;69.40
8537;DHT22;4306;50.210;10.628;2023-06-22T14:36:54;32.70;72.30
8537;DHT22;4306;50.210;10.628;2023-06-22T14:39:22;32.70;69.40
8537;DHT22;4306;50.210;10.628;2023-06-22T14:41:49;32.80;72.30
8537;DHT22;4306;50.210;10.628;2023-06-22T14:44:16;33.10;71.40
8537;DHT22;4306;50.210;10.628;2023-06-22T14:46:43;33.10;68.00
8537;DHT22;4306;50.210;10.628;2023-06-22T14:49:10;33.20;69.00
8537;DHT22;4306;50.210;10.628;2023-06-22T14:51:37;33.30;68.10
8537;DHT22;4306;50.210;10.628;2023-06-22T14:54:03;33.30;67.00
8537;DHT22;4306;50.210;10.628;2023-06-22T14:56:32;33.40;67.30
8537;DHT22;4306;50.210;10.628;2023-06-22T14:58:58;33.60;69.80
8537;DHT22;4306;50.210;10.628;2023-06-22T15:01:25;33.70;67.20
8537;DHT22;4306;50.210;10.628;2023-06-22T15:03:52;33.70;69.20
8537;DHT22;4306;50.210;10.628;2023-06-22T15:06:19;33.70;68.70
8537;DHT22;4306;50.210;10.628;2023-06-22T15:08:46;33.70;68.20
8537;DHT22;4306;50.210;10.628;2023-06-22T15:11:13;33.70;68.80
8537;DHT22;4306;50.210;10.628;2023-06-22T15:13:41;33.60;66.70
8537;DHT22;4306;50.210;10.628;2023-06-22T15:16:08;33.60;69.00
8537;DHT22;4306;50.210;10.628;2023-06-22T15:18:36;33.60;65.90
8537;DHT22;4306;50.210;10.628;2023-06-22T15:21:03;33.50;65.50
8537;DHT22;4306;50.210;10.628;2023-06-22T15:23:31;33.60;66.80
8537;DHT22;4306;50.210;10.628;2023-06-22T15:26:01;33.50;66.80
8537;DHT22;4306;50.210;10.628;2023-06-22T15:28:29;33.60;67.10
8537;DHT22;4306;50.210;10.628;2023-06-22T15:30:59;33.50;66.10
8537;DHT22;4306;50.210;10.628;2023-06-22T15:33:25;33.60;67.30
8537;DHT22;4306;50.210;10.628;2023-06-22T15:35:52;33.40;66.90
8537;DHT22;4306;50.210;10.628;2023-06-22T15:38:20;33.30;66.90
8537;DHT22;4306;50.210;10.628;2023-06-22T15:40:47;33.20;67.10
8537;DHT22;4306;50.210;10.628;2023-06-22T15:43:13;33.20;69.10
8537;DHT22;4306;50.210;10.628;2023-06-22T15:45:40;33.10;68.30